createdAt,value
2022-08-03T00:04:34.189Z,24.68
2022-08-03T00:09:38.102Z,24.65
2022-08-03T00:14:42.374Z,24.59
2022-08-03T00:19:46.300Z,24.53
2022-08-03T00:24:49.981Z,24.51
2022-08-03T00:30:00.002Z,24.44
2022-08-03T00:35:09.170Z,24.44
2022-08-03T00:40:16.561Z,24.44
2022-08-03T00:45:23.083Z,24.47
2022-08-03T00:50:29.179Z,24.48
2022-08-03T00:55:38.816Z,24.49
2022-08-03T01:00:42.513Z,24.44
2022-08-03T01:05:53.270Z,24.45
2022-08-03T01:11:06.482Z,24.47
2022-08-03T01:16:16.883Z,24.47
2022-08-03T01:21:49.809Z,24.49
2022-08-03T01:27:03.398Z,24.51
2022-08-03T01:32:53.428Z,24.49
2022-08-03T01:37:48.158Z,24.47
2022-08-03T01:43:01.357Z,24.44
2022-08-03T01:48:07.533Z,24.41
2022-08-03T01:53:15.710Z,24.39
2022-08-03T01:58:21.305Z,24.40
2022-08-03T02:03:25.527Z,24.42
2022-08-03T02:08:31.530Z,24.42
2022-08-03T02:13:35.908Z,24.40
2022-08-03T02:18:41.456Z,24.41
2022-08-03T02:23:44.904Z,24.38
2022-08-03T02:28:52.351Z,24.34
2022-08-03T02:34:09.929Z,24.32
2022-08-03T02:39:16.861Z,24.30
2022-08-03T02:44:26.642Z,24.25
2022-08-03T02:49:41.396Z,24.21
2022-08-03T02:54:59.328Z,24.19
2022-08-03T03:00:06.002Z,24.18
2022-08-03T03:05:56.300Z,24.17
2022-08-03T03:10:36.698Z,24.16
2022-08-03T03:15:42.354Z,24.17
2022-08-03T03:20:46.843Z,24.16
2022-08-03T03:25:51.516Z,24.17
2022-08-03T03:30:55.106Z,24.20
2022-08-03T03:35:59.327Z,24.28
2022-08-03T03:41:03.531Z,24.31
2022-08-03T03:46:07.656Z,24.35
2022-08-03T03:51:11.701Z,24.42
2022-08-03T03:56:15.757Z,24.45
2022-08-03T04:01:20.111Z,24.49
2022-08-03T04:06:24.092Z,24.52
2022-08-03T04:11:36.861Z,24.56
2022-08-03T04:16:43.946Z,24.55
2022-08-03T04:21:53.528Z,24.60
2022-08-03T04:27:07.531Z,24.67
2022-08-03T04:32:12.325Z,24.75
2022-08-03T04:37:24.894Z,24.84
2022-08-03T04:42:31.609Z,24.94
2022-08-03T04:47:35.913Z,25.00
2022-08-03T04:52:40.030Z,25.10
2022-08-03T04:57:43.656Z,25.20
2022-08-03T05:02:47.546Z,25.38
2022-08-03T05:07:51.602Z,25.61
2022-08-03T05:12:56.461Z,25.96
2022-08-03T05:18:00.333Z,26.29
2022-08-03T05:23:03.761Z,26.41
2022-08-03T05:28:07.512Z,26.39
2022-08-03T05:33:11.969Z,26.46
2022-08-03T05:38:23.904Z,26.84
2022-08-03T05:43:32.098Z,27.18
2022-08-03T05:48:36.773Z,27.68
2022-08-03T05:53:43.523Z,27.89
2022-08-03T05:58:47.998Z,27.98
2022-08-03T06:03:52.317Z,27.97
2022-08-03T06:08:55.881Z,28.00
2022-08-03T06:13:59.189Z,28.15
2022-08-03T06:19:03.203Z,28.52
2022-08-03T06:24:07.330Z,30.60
2022-08-03T06:29:11.554Z,33.69
2022-08-03T06:34:33.480Z,35.26
2022-08-03T06:39:39.201Z,35.63
2022-08-03T06:44:42.900Z,36.52
2022-08-03T06:50:12.564Z,37.75
2022-08-03T06:55:13.564Z,37.92
2022-08-03T07:00:17.423Z,37.38
2022-08-03T07:05:21.435Z,36.41
2022-08-03T07:10:33.463Z,35.58
2022-08-03T07:15:55.222Z,35.18
2022-08-03T07:21:00.141Z,35.14
2022-08-03T07:26:03.904Z,35.67
2022-08-03T07:31:07.344Z,35.90
2022-08-03T07:36:11.408Z,35.89
2022-08-03T07:41:15.087Z,35.64
2022-08-03T07:46:18.844Z,35.29
2022-08-03T07:51:22.568Z,34.74
2022-08-03T07:56:26.167Z,34.31
2022-08-03T08:01:30.359Z,33.81
2022-08-03T08:06:33.873Z,33.58
2022-08-03T08:11:40.130Z,33.43
2022-08-03T08:16:43.799Z,33.37
2022-08-03T08:21:53.969Z,33.28
2022-08-03T08:27:06.724Z,33.26
2022-08-03T08:32:10.719Z,33.20
2022-08-03T08:37:14.311Z,33.05
2022-08-03T08:42:18.266Z,33.02
2022-08-03T08:47:26.077Z,32.95
2022-08-03T08:52:31.860Z,32.98
2022-08-03T08:57:48.781Z,32.95
2022-08-03T09:02:52.454Z,32.95
2022-08-03T09:07:56.221Z,33.03
2022-08-03T09:12:59.779Z,32.92
2022-08-03T09:18:04.974Z,32.84
2022-08-03T09:23:59.015Z,32.75
2022-08-03T09:28:56.556Z,32.67
2022-08-03T09:34:02.384Z,32.58
2022-08-03T09:39:17.052Z,32.37
2022-08-03T09:44:35.229Z,32.27
2022-08-03T09:49:41.052Z,32.17
2022-08-03T09:54:52.379Z,32.10
2022-08-03T10:00:08.484Z,31.92
2022-08-03T10:05:32.936Z,31.85
2022-08-03T10:10:43.852Z,31.79
2022-08-03T10:16:21.866Z,31.79
2022-08-03T10:21:17.819Z,31.74
2022-08-03T10:26:25.602Z,31.81
2022-08-03T10:31:38.845Z,31.85
2022-08-03T10:37:00.364Z,31.70
2022-08-03T10:42:14.636Z,31.60
2022-08-03T10:47:19.127Z,31.50
2022-08-03T10:52:33.635Z,31.44
2022-08-03T10:57:49.740Z,31.41
2022-08-03T11:03:12.768Z,31.36
2022-08-03T11:08:32.377Z,31.36
2022-08-03T11:13:35.749Z,31.28
2022-08-03T11:19:05.736Z,31.10
2022-08-03T11:24:09.396Z,31.05
2022-08-03T11:29:31.801Z,30.98
2022-08-03T11:35:08.975Z,30.87
2022-08-03T11:40:36.352Z,30.85
2022-08-03T11:45:59.519Z,30.87
2022-08-03T11:51:07.835Z,30.80
2022-08-03T11:56:13.072Z,30.66
2022-08-03T12:01:21.281Z,30.52
2022-08-03T12:06:27.103Z,30.42
2022-08-03T12:11:30.593Z,30.44
2022-08-03T12:16:34.230Z,30.38
2022-08-03T12:21:57.271Z,30.34
2022-08-03T12:27:01.255Z,30.29
2022-08-03T12:32:05.494Z,30.20
2022-08-03T12:37:22.203Z,30.02
2022-08-03T12:42:37.141Z,29.90
2022-08-03T12:48:00.883Z,29.83
2022-08-03T12:53:10.139Z,29.72
2022-08-03T12:58:32.920Z,29.63
2022-08-03T13:03:42.994Z,29.52
2022-08-03T13:08:48.045Z,29.47
2022-08-03T13:13:52.776Z,29.48
2022-08-03T13:18:56.228Z,29.50
2022-08-03T13:23:59.918Z,29.46
2022-08-03T13:29:03.520Z,29.45
2022-08-03T13:34:07.622Z,29.44
2022-08-03T13:39:11.031Z,29.42
2022-08-03T13:44:29.269Z,29.41
2022-08-03T13:49:33.186Z,29.41
2022-08-03T13:54:36.600Z,29.36
2022-08-03T13:59:40.050Z,29.32
2022-08-03T14:04:44.356Z,29.30
2022-08-03T14:09:48.234Z,29.31
2022-08-03T14:14:51.883Z,29.23
2022-08-03T14:19:55.413Z,29.14
2022-08-03T14:25:01.985Z,29.05
2022-08-03T14:30:08.062Z,28.94
2022-08-03T14:35:11.489Z,28.86
2022-08-03T14:40:15.048Z,28.80
2022-08-03T14:45:20.397Z,28.73
2022-08-03T14:50:38.081Z,28.65
2022-08-03T14:55:50.569Z,28.63
2022-08-03T15:00:55.973Z,28.57
2022-08-03T15:05:59.612Z,28.48
2022-08-03T15:11:03.348Z,28.41
2022-08-03T15:16:08.588Z,28.34
2022-08-03T15:21:16.576Z,28.32
2022-08-03T15:26:41.205Z,28.22
2022-08-03T15:31:45.130Z,28.17
2022-08-03T15:36:48.653Z,28.04
2022-08-03T15:41:52.482Z,27.91
2022-08-03T15:46:55.819Z,27.87
2022-08-03T15:51:59.737Z,27.81
2022-08-03T15:57:03.495Z,27.72
2022-08-03T16:02:07.086Z,27.61
2022-08-03T16:07:12.832Z,27.47
2022-08-03T16:12:23.002Z,27.35
2022-08-03T16:17:26.637Z,27.22
2022-08-03T16:22:30.624Z,27.10
2022-08-03T16:28:00.245Z,26.98
2022-08-03T16:33:01.345Z,26.88
2022-08-03T16:38:09.982Z,26.76
2022-08-03T16:43:18.502Z,26.64
2022-08-03T16:48:22.816Z,26.53
2022-08-03T16:54:02.606Z,26.40
2022-08-03T16:58:51.344Z,26.38
2022-08-03T17:04:02.986Z,26.31
2022-08-03T17:09:14.157Z,26.22
2022-08-03T17:14:21.993Z,26.17
2022-08-03T17:19:26.528Z,26.12
2022-08-03T17:24:41.196Z,26.08
2022-08-03T17:29:53.205Z,26.05
2022-08-03T17:34:57.038Z,25.99
2022-08-03T17:40:03.997Z,25.95
2022-08-03T17:45:17.913Z,25.91
2022-08-03T17:50:24.297Z,25.87
2022-08-03T17:55:56.725Z,25.85
2022-08-03T18:01:00.071Z,25.82
2022-08-03T18:06:11.022Z,25.79
2022-08-03T18:11:18.426Z,25.77
2022-08-03T18:16:37.737Z,25.74
2022-08-03T18:22:03.326Z,25.70
2022-08-03T18:27:08.669Z,25.68
2022-08-03T18:32:16.944Z,25.65
2022-08-03T18:37:25.225Z,25.63
2022-08-03T18:42:32.296Z,25.60
2022-08-03T18:47:52.411Z,25.57
2022-08-03T18:53:16.584Z,25.53
2022-08-03T18:58:46.602Z,25.51
2022-08-03T19:03:57.965Z,25.50
2022-08-03T19:09:07.017Z,25.46
2022-08-03T19:14:21.877Z,25.41
2022-08-03T19:19:43.333Z,25.41
2022-08-03T19:24:49.249Z,25.39
2022-08-03T19:29:58.945Z,25.38
2022-08-03T19:35:13.271Z,25.37
2022-08-03T19:40:22.653Z,25.31
2022-08-03T19:46:04.950Z,25.27
2022-08-03T19:51:12.243Z,25.24
2022-08-03T19:56:22.760Z,25.20
2022-08-03T20:01:28.285Z,25.16
2022-08-03T20:06:32.166Z,25.14
2022-08-03T20:11:44.997Z,25.14
2022-08-03T20:16:49.362Z,25.15
2022-08-03T20:21:54.704Z,25.16
2022-08-03T20:27:00.879Z,25.17
2022-08-03T20:32:04.823Z,25.16
2022-08-03T20:37:09.472Z,25.18
2022-08-03T20:42:21.496Z,25.21
2022-08-03T20:47:28.409Z,25.23
2022-08-03T20:52:34.593Z,25.22
2022-08-03T20:57:49.013Z,25.21
2022-08-03T21:02:53.335Z,25.18
2022-08-03T21:08:06.877Z,25.15
2022-08-03T21:13:18.530Z,25.11
2022-08-03T21:18:25.650Z,25.09
2022-08-03T21:23:40.120Z,25.06
2022-08-03T21:28:55.075Z,25.06
2022-08-03T21:34:05.306Z,25.04
2022-08-03T21:39:11.231Z,25.01
2022-08-03T21:44:17.372Z,24.97
2022-08-03T21:50:04.434Z,24.96
2022-08-03T21:55:03.178Z,24.91
2022-08-03T22:00:13.033Z,24.89
2022-08-03T22:05:28.162Z,24.87
2022-08-03T22:10:45.097Z,24.83
2022-08-03T22:15:48.839Z,24.78
2022-08-03T22:20:53.512Z,24.76
2022-08-03T22:25:58.875Z,24.75
2022-08-03T22:31:37.628Z,24.74
2022-08-03T22:36:27.022Z,24.75
2022-08-03T22:41:31.666Z,24.76
2022-08-03T22:46:38.343Z,24.80
2022-08-03T22:51:43.465Z,24.82
2022-08-03T22:56:47.409Z,24.80
2022-08-03T23:01:55.810Z,24.80
2022-08-03T23:07:03.766Z,24.78
2022-08-03T23:12:07.916Z,24.73
2022-08-03T23:17:14.468Z,24.69
2022-08-03T23:22:30.388Z,24.65
2022-08-03T23:27:35.103Z,24.64
2022-08-03T23:32:41.726Z,24.65
2022-08-03T23:38:04.217Z,24.66
2022-08-03T23:43:13.413Z,24.66
2022-08-03T23:48:23.141Z,24.63
2022-08-03T23:53:40.929Z,24.65
2022-08-03T23:59:06.083Z,24.65
